createdAt,value
2018-08-17T00:01:25.650Z,19.90
2018-08-17T00:04:04.801Z,19.80
2018-08-17T00:06:34.704Z,19.80
2018-08-17T00:09:08.242Z,19.80
2018-08-17T00:11:39.037Z,19.70
2018-08-17T00:14:09.631Z,19.60
2018-08-17T00:16:39.639Z,19.60
2018-08-17T00:19:09.594Z,19.60
2018-08-17T00:21:40.281Z,19.60
2018-08-17T00:24:09.975Z,19.50
2018-08-17T00:26:39.657Z,19.50
2018-08-17T00:29:09.660Z,19.50
2018-08-17T00:31:39.387Z,19.50
2018-08-17T00:34:09.808Z,19.50
2018-08-17T00:36:40.448Z,19.40
2018-08-17T00:39:11.422Z,19.40
2018-08-17T00:41:42.090Z,19.30
2018-08-17T00:44:11.730Z,19.30
2018-08-17T00:46:41.426Z,19.20
2018-08-17T00:49:11.283Z,19.20
2018-08-17T00:51:42.381Z,19.20
2018-08-17T00:54:12.008Z,19.20
2018-08-17T00:56:42.539Z,19.20
2018-08-17T00:59:12.226Z,19.10
2018-08-17T01:01:42.257Z,19.10
2018-08-17T01:04:12.012Z,19.10
2018-08-17T01:06:42.841Z,19.10
2018-08-17T01:09:12.516Z,18.90
2018-08-17T01:11:43.481Z,19.00
2018-08-17T01:14:13.081Z,18.90
2018-08-17T01:16:42.731Z,18.90
2018-08-17T01:19:12.409Z,18.90
2018-08-17T01:21:43.071Z,18.90
2018-08-17T01:24:12.699Z,18.90
2018-08-17T01:26:42.994Z,18.90
2018-08-17T01:29:12.631Z,18.90
2018-08-17T01:31:42.360Z,18.90
2018-08-17T01:34:12.049Z,18.80
2018-08-17T01:36:42.341Z,18.80
2018-08-17T01:39:12.050Z,18.80
2018-08-17T01:41:41.944Z,18.70
2018-08-17T01:44:11.616Z,18.70
2018-08-17T01:46:41.254Z,18.70
2018-08-17T01:49:10.869Z,18.70
2018-08-17T01:51:42.148Z,18.60
2018-08-17T01:54:11.746Z,18.60
2018-08-17T01:56:41.762Z,18.60
2018-08-17T01:59:11.458Z,18.50
2018-08-17T02:01:41.282Z,18.50
2018-08-17T02:04:10.914Z,18.40
2018-08-17T02:06:42.151Z,18.40
2018-08-17T02:09:12.912Z,18.40
2018-08-17T02:11:43.460Z,18.40
2018-08-17T02:14:13.093Z,18.40
2018-08-17T02:16:42.693Z,18.30
2018-08-17T02:19:12.338Z,18.30
2018-08-17T02:21:42.810Z,18.20
2018-08-17T02:24:12.425Z,18.10
2018-08-17T02:26:42.655Z,18.10
2018-08-17T02:29:12.353Z,18.10
2018-08-17T02:31:41.930Z,18.00
2018-08-17T02:34:11.549Z,18.00
2018-08-17T02:36:42.911Z,17.90
2018-08-17T02:39:12.534Z,17.90
2018-08-17T02:41:42.738Z,17.90
2018-08-17T02:44:12.378Z,17.80
2018-08-17T02:46:42.046Z,17.80
2018-08-17T02:49:11.634Z,17.80
2018-08-17T02:51:42.062Z,17.80
2018-08-17T02:54:11.788Z,17.70
2018-08-17T02:56:42.011Z,17.70
2018-08-17T02:59:11.649Z,17.70
2018-08-17T03:01:41.441Z,17.80
2018-08-17T03:04:11.097Z,17.70
2018-08-17T03:06:41.940Z,17.80
2018-08-17T03:09:12.489Z,17.70
2018-08-17T03:11:44.301Z,17.70
2018-08-17T03:14:13.934Z,17.70
2018-08-17T03:16:43.518Z,17.60
2018-08-17T03:19:13.124Z,17.60
2018-08-17T03:21:44.260Z,17.60
2018-08-17T03:24:13.871Z,17.60
2018-08-17T03:26:44.286Z,17.50
2018-08-17T03:29:13.978Z,17.50
2018-08-17T03:31:43.575Z,17.40
2018-08-17T03:34:13.161Z,17.40
2018-08-17T03:36:43.612Z,17.40
2018-08-17T03:39:13.232Z,17.30
2018-08-17T03:41:43.906Z,17.30
2018-08-17T03:44:13.492Z,17.30
2018-08-17T03:46:43.233Z,17.30
2018-08-17T03:49:12.892Z,17.30
2018-08-17T03:51:43.185Z,17.40
2018-08-17T03:54:12.832Z,17.40
2018-08-17T03:56:42.983Z,17.40
2018-08-17T03:59:12.575Z,17.40
2018-08-17T04:01:42.282Z,17.30
2018-08-17T04:04:11.884Z,17.30
2018-08-17T04:06:42.424Z,17.30
2018-08-17T04:09:12.484Z,17.30
2018-08-17T04:11:42.795Z,17.30
2018-08-17T04:14:12.425Z,17.30
2018-08-17T04:16:42.622Z,17.30
2018-08-17T04:19:12.367Z,17.30
2018-08-17T04:21:43.437Z,17.30
2018-08-17T04:24:13.011Z,17.30
2018-08-17T04:26:43.122Z,17.40
2018-08-17T04:29:12.718Z,17.30
2018-08-17T04:31:42.509Z,17.30
2018-08-17T04:34:12.669Z,17.40
2018-08-17T04:36:43.470Z,17.40
2018-08-17T04:39:13.047Z,17.60
2018-08-17T04:41:44.444Z,17.70
2018-08-17T04:44:14.131Z,17.70
2018-08-17T04:46:43.831Z,17.80
2018-08-17T04:49:13.518Z,17.90
2018-08-17T04:51:43.973Z,18.00
2018-08-17T04:54:13.632Z,18.10
2018-08-17T04:56:43.666Z,18.10
2018-08-17T04:59:13.245Z,18.20
2018-08-17T05:01:42.813Z,18.40
2018-08-17T05:04:12.418Z,18.50
2018-08-17T05:06:42.380Z,18.50
2018-08-17T05:09:11.949Z,18.60
2018-08-17T05:11:42.382Z,18.70
2018-08-17T05:14:11.976Z,18.90
2018-08-17T05:16:41.628Z,19.00
2018-08-17T05:19:11.203Z,19.10
2018-08-17T05:21:41.898Z,19.20
2018-08-17T05:24:11.520Z,19.30
2018-08-17T05:26:41.318Z,19.40
2018-08-17T05:29:10.923Z,19.50
2018-08-17T05:31:40.527Z,19.70
2018-08-17T05:34:10.168Z,19.80
2018-08-17T05:36:40.574Z,19.90
2018-08-17T05:39:10.563Z,20.10
2018-08-17T05:41:40.318Z,20.00
2018-08-17T05:44:09.972Z,20.10
2018-08-17T05:46:39.680Z,20.30
2018-08-17T05:49:09.336Z,20.40
2018-08-17T05:51:39.705Z,20.60
2018-08-17T05:54:09.387Z,20.70
2018-08-17T05:56:39.132Z,20.90
2018-08-17T05:59:08.762Z,20.90
2018-08-17T06:01:38.548Z,21.10
2018-08-17T06:04:08.308Z,21.30
2018-08-17T06:06:38.358Z,21.40
2018-08-17T06:09:09.423Z,21.40
2018-08-17T06:11:40.340Z,21.50
2018-08-17T06:14:09.971Z,21.50
2018-08-17T06:16:39.728Z,21.60
2018-08-17T06:19:09.338Z,21.60
2018-08-17T06:21:39.513Z,21.60
2018-08-17T06:24:09.219Z,21.70
2018-08-17T06:26:38.872Z,21.80
2018-08-17T06:29:08.499Z,21.80
2018-08-17T06:31:38.369Z,21.80
2018-08-17T06:34:08.013Z,21.90
2018-08-17T06:36:37.876Z,22.10
2018-08-17T06:39:10.493Z,22.00
2018-08-17T06:41:40.137Z,22.10
2018-08-17T06:44:09.791Z,22.30
2018-08-17T06:46:39.496Z,22.40
2018-08-17T06:49:09.111Z,22.90
2018-08-17T06:51:39.882Z,23.20
2018-08-17T06:54:09.551Z,23.50
2018-08-17T06:56:39.240Z,23.80
2018-08-17T06:59:08.897Z,23.90
2018-08-17T07:01:38.589Z,24.20
2018-08-17T07:04:08.398Z,24.10
2018-08-17T07:06:38.820Z,24.20
2018-08-17T07:09:10.335Z,24.30
2018-08-17T07:11:40.713Z,24.50
2018-08-17T07:14:11.213Z,24.40
2018-08-17T07:16:40.961Z,24.40
2018-08-17T07:19:10.617Z,24.60
2018-08-17T07:21:41.443Z,24.60
2018-08-17T07:24:11.052Z,24.60
2018-08-17T07:26:40.842Z,24.40
2018-08-17T07:29:10.454Z,24.20
2018-08-17T07:31:40.112Z,24.20
2018-08-17T07:34:09.706Z,24.20
2018-08-17T07:36:40.352Z,24.30
2018-08-17T07:39:10.020Z,24.90
2018-08-17T07:41:39.850Z,25.30
2018-08-17T07:44:09.522Z,25.60
2018-08-17T07:46:39.303Z,25.40
2018-08-17T07:49:09.394Z,25.60
2018-08-17T07:51:40.360Z,25.60
2018-08-17T07:54:10.034Z,25.60
2018-08-17T07:56:39.805Z,25.40
2018-08-17T07:59:09.468Z,25.80
2018-08-17T08:01:39.339Z,26.10
2018-08-17T08:04:09.014Z,26.30
2018-08-17T08:06:41.572Z,26.60
2018-08-17T08:09:12.149Z,26.30
2018-08-17T08:11:42.729Z,26.50
2018-08-17T08:14:12.510Z,26.70
2018-08-17T08:16:42.701Z,26.80
2018-08-17T08:19:13.964Z,26.60
2018-08-17T08:21:49.858Z,26.80
2018-08-17T08:24:20.299Z,27.10
2018-08-17T08:26:50.391Z,27.10
2018-08-17T08:29:20.004Z,26.70
2018-08-17T08:31:49.839Z,26.70
2018-08-17T08:34:19.496Z,27.00
2018-08-17T08:36:49.116Z,27.30
2018-08-17T08:39:18.740Z,27.40
2018-08-17T08:41:49.083Z,27.70
2018-08-17T08:44:18.833Z,27.80
2018-08-17T08:46:48.532Z,27.60
2018-08-17T08:49:18.168Z,27.70
2018-08-17T08:51:47.970Z,27.70
2018-08-17T08:54:17.812Z,27.80
2018-08-17T08:56:48.929Z,28.00
2018-08-17T08:59:18.559Z,27.80
2018-08-17T09:01:48.400Z,27.90
2018-08-17T09:04:19.245Z,28.30
2018-08-17T09:06:49.054Z,28.40
2018-08-17T09:09:18.728Z,28.50
2018-08-17T09:11:48.933Z,28.70
2018-08-17T09:14:18.643Z,28.70
2018-08-17T09:16:48.411Z,28.60
2018-08-17T09:19:18.074Z,28.80
2018-08-17T09:21:47.918Z,28.90
2018-08-17T09:24:17.658Z,29.10
2018-08-17T09:26:48.369Z,29.30
2018-08-17T09:29:18.058Z,29.40
2018-08-17T09:31:47.852Z,29.50
2018-08-17T09:34:17.509Z,29.50
2018-08-17T09:36:47.295Z,29.20
2018-08-17T09:39:16.968Z,29.20
2018-08-17T09:41:48.142Z,29.50
2018-08-17T09:44:17.721Z,29.60
2018-08-17T09:46:47.515Z,29.60
2018-08-17T09:49:17.242Z,29.60
2018-08-17T09:51:47.164Z,29.90
2018-08-17T09:54:16.837Z,30.00
2018-08-17T09:56:47.168Z,29.90
2018-08-17T09:59:16.831Z,30.00
2018-08-17T10:01:51.948Z,30.20
2018-08-17T10:04:26.754Z,30.30
2018-08-17T10:07:02.194Z,30.30
2018-08-17T10:09:37.429Z,30.40
2018-08-17T10:12:07.177Z,30.30
2018-08-17T10:14:36.872Z,30.40
2018-08-17T10:17:06.632Z,30.50
2018-08-17T10:19:36.315Z,30.50
2018-08-17T10:22:06.385Z,30.60
2018-08-17T10:24:35.803Z,30.50
2018-08-17T10:27:05.485Z,30.30
2018-08-17T10:29:35.138Z,30.50
2018-08-17T10:32:04.845Z,30.60
2018-08-17T10:34:34.489Z,30.40
2018-08-17T10:37:04.171Z,30.30
2018-08-17T10:39:34.354Z,30.50
2018-08-17T10:42:03.992Z,30.40
2018-08-17T10:44:34.191Z,30.60
2018-08-17T10:47:03.886Z,30.80
2018-08-17T10:49:33.549Z,30.90
2018-08-17T10:52:03.236Z,31.00
2018-08-17T10:54:32.887Z,31.10
2018-08-17T10:57:03.332Z,31.00
2018-08-17T10:59:33.087Z,31.30
2018-08-17T11:02:02.873Z,31.50
2018-08-17T11:04:32.593Z,31.60
2018-08-17T11:07:02.311Z,31.70
2018-08-17T11:09:31.936Z,31.70
2018-08-17T11:12:01.588Z,31.70
2018-08-17T11:14:31.483Z,31.70
2018-08-17T11:17:01.175Z,31.70
2018-08-17T11:19:30.888Z,31.60
2018-08-17T11:22:00.860Z,31.60
2018-08-17T11:24:30.507Z,31.80
2018-08-17T11:27:00.226Z,31.80
2018-08-17T11:29:29.876Z,31.70
2018-08-17T11:31:59.493Z,31.80
2018-08-17T11:34:29.247Z,32.00
2018-08-17T11:36:58.874Z,32.10
2018-08-17T11:39:29.477Z,32.00
2018-08-17T11:41:59.223Z,32.10
2018-08-17T11:44:29.144Z,32.10
2018-08-17T11:47:01.626Z,32.30
2018-08-17T11:49:31.359Z,32.30
2018-08-17T11:52:00.976Z,32.50
2018-08-17T11:54:30.658Z,32.50
2018-08-17T11:57:00.344Z,32.70
2018-08-17T11:59:30.060Z,32.80
2018-08-17T12:01:59.892Z,33.00
2018-08-17T12:04:29.623Z,33.00
2018-08-17T12:06:59.340Z,32.70
2018-08-17T12:09:29.775Z,32.60
2018-08-17T12:11:59.334Z,32.50
2018-08-17T12:14:28.992Z,32.60
2018-08-17T12:16:58.699Z,32.70
2018-08-17T12:19:28.397Z,32.80
2018-08-17T12:21:58.112Z,33.00
2018-08-17T12:24:27.910Z,33.30
2018-08-17T12:26:57.502Z,33.40
2018-08-17T12:29:27.141Z,33.60
2018-08-17T12:31:56.811Z,33.70
2018-08-17T12:34:26.461Z,33.80
2018-08-17T12:36:56.099Z,33.80
2018-08-17T12:39:25.684Z,33.70
2018-08-17T12:41:55.459Z,33.80
2018-08-17T12:44:25.126Z,34.00
2018-08-17T12:46:54.781Z,34.10
2018-08-17T12:49:24.389Z,34.20
2018-08-17T12:51:54.063Z,34.20
2018-08-17T12:54:28.941Z,34.40
2018-08-17T12:56:59.184Z,34.70
2018-08-17T12:59:29.363Z,35.00
2018-08-17T13:01:58.995Z,35.10
2018-08-17T13:04:29.205Z,35.50
2018-08-17T13:06:59.371Z,35.60
2018-08-17T13:09:29.064Z,35.60
2018-08-17T13:12:01.511Z,36.00
2018-08-17T13:14:31.186Z,35.90
2018-08-17T13:17:01.783Z,35.70
2018-08-17T13:19:31.569Z,35.90
2018-08-17T13:22:01.205Z,36.30
2018-08-17T13:24:30.843Z,36.60
2018-08-17T13:27:00.471Z,36.60
2018-08-17T13:29:30.211Z,36.80
2018-08-17T13:31:59.835Z,36.80
2018-08-17T13:34:29.466Z,36.50
2018-08-17T13:37:00.908Z,36.80
2018-08-17T13:39:32.056Z,36.80
2018-08-17T13:42:01.852Z,36.60
2018-08-17T13:44:32.302Z,36.20
2018-08-17T13:47:02.426Z,35.60
2018-08-17T13:49:32.197Z,35.50
2018-08-17T13:52:04.833Z,35.40
2018-08-17T13:54:34.445Z,34.90
2018-08-17T13:57:04.418Z,35.00
2018-08-17T13:59:34.766Z,35.20
2018-08-17T14:02:05.461Z,35.60
2018-08-17T14:04:35.215Z,35.90
2018-08-17T14:07:05.259Z,35.90
2018-08-17T14:09:34.894Z,35.10
2018-08-17T14:12:04.525Z,34.50
2018-08-17T14:14:34.144Z,34.20
2018-08-17T14:17:04.671Z,34.10
2018-08-17T14:19:34.475Z,34.30
2018-08-17T14:22:04.303Z,34.70
2018-08-17T14:24:33.867Z,34.80
2018-08-17T14:27:05.205Z,34.80
2018-08-17T14:29:34.845Z,34.80
2018-08-17T14:32:04.529Z,34.90
2018-08-17T14:34:34.169Z,35.00
2018-08-17T14:37:03.765Z,34.90
2018-08-17T14:39:33.439Z,34.90
2018-08-17T14:42:03.260Z,34.90
2018-08-17T14:44:32.889Z,35.30
2018-08-17T14:47:02.541Z,35.70
2018-08-17T14:49:32.477Z,35.70
2018-08-17T14:52:02.156Z,35.70
2018-08-17T14:54:31.829Z,35.90
2018-08-17T14:57:01.508Z,35.60
2018-08-17T14:59:31.199Z,35.00
2018-08-17T15:02:00.916Z,34.50
2018-08-17T15:04:30.568Z,34.20
2018-08-17T15:07:00.171Z,34.20
2018-08-17T15:09:30.069Z,34.00
2018-08-17T15:11:59.751Z,33.90
2018-08-17T15:14:32.231Z,33.90
2018-08-17T15:17:02.031Z,34.20
2018-08-17T15:19:31.721Z,34.20
2018-08-17T15:22:01.371Z,34.10
2018-08-17T15:24:31.114Z,34.00
2018-08-17T15:27:00.798Z,34.10
2018-08-17T15:29:30.477Z,34.00
2018-08-17T15:32:00.258Z,34.00
2018-08-17T15:34:29.899Z,34.00
2018-08-17T15:36:59.855Z,33.80
2018-08-17T15:39:29.490Z,33.70
2018-08-17T15:41:59.779Z,33.70
2018-08-17T15:44:29.610Z,33.60
2018-08-17T15:47:00.123Z,33.70
2018-08-17T15:49:34.219Z,33.60
2018-08-17T15:52:05.188Z,33.50
2018-08-17T15:54:34.934Z,33.50
2018-08-17T15:57:04.564Z,33.40
2018-08-17T15:59:34.214Z,33.20
2018-08-17T16:02:04.026Z,33.10
2018-08-17T16:04:33.669Z,33.10
2018-08-17T16:07:03.339Z,33.00
2018-08-17T16:09:33.192Z,32.80
2018-08-17T16:12:02.821Z,32.60
2018-08-17T16:14:32.493Z,32.60
2018-08-17T16:17:02.177Z,32.50
2018-08-17T16:19:31.956Z,32.40
2018-08-17T16:22:01.936Z,32.30
2018-08-17T16:24:31.619Z,32.20
2018-08-17T16:27:02.153Z,32.10
2018-08-17T16:29:31.828Z,31.90
2018-08-17T16:32:02.581Z,31.90
2018-08-17T16:34:32.104Z,31.80
2018-08-17T16:37:02.883Z,31.70
2018-08-17T16:39:34.876Z,31.60
2018-08-17T16:42:04.631Z,31.60
2018-08-17T16:44:34.345Z,31.40
2018-08-17T16:47:04.220Z,31.30
2018-08-17T16:49:33.988Z,31.10
2018-08-17T16:52:04.002Z,31.00
2018-08-17T16:54:33.933Z,30.90
2018-08-17T16:57:04.025Z,30.80
2018-08-17T16:59:33.732Z,30.70
2018-08-17T17:02:03.901Z,30.60
2018-08-17T17:04:40.640Z,30.40
2018-08-17T17:07:10.385Z,30.30
2018-08-17T17:09:41.296Z,30.20
2018-08-17T17:12:17.331Z,30.00
2018-08-17T17:14:48.126Z,29.90
2018-08-17T17:17:19.453Z,29.80
2018-08-17T17:19:51.073Z,29.70
2018-08-17T17:22:23.960Z,29.60
2018-08-17T17:24:54.181Z,29.50
2018-08-17T17:27:32.290Z,29.40
2018-08-17T17:30:15.265Z,29.30
2018-08-17T17:32:50.905Z,29.20
2018-08-17T17:35:31.446Z,29.10
2018-08-17T17:38:02.987Z,29.00
2018-08-17T17:40:34.073Z,28.90
2018-08-17T17:43:04.617Z,28.80
2018-08-17T17:45:39.680Z,28.40
2018-08-17T17:48:11.910Z,26.60
2018-08-17T17:50:43.477Z,25.40
2018-08-17T17:53:17.362Z,24.90
2018-08-17T17:55:49.046Z,24.50
2018-08-17T17:58:19.564Z,24.30
2018-08-17T18:00:59.960Z,24.20
2018-08-17T18:03:32.275Z,24.10
2018-08-17T18:06:04.717Z,24.20
2018-08-17T18:08:34.548Z,24.20
2018-08-17T18:11:04.839Z,24.40
2018-08-17T18:13:34.906Z,24.50
2018-08-17T18:16:05.231Z,24.70
2018-08-17T18:18:35.239Z,24.70
2018-08-17T18:21:05.712Z,25.00
2018-08-17T18:23:35.464Z,25.00
2018-08-17T18:26:10.919Z,25.00
2018-08-17T18:28:44.826Z,25.00
2018-08-17T18:31:14.916Z,25.00
2018-08-17T18:33:45.683Z,24.90
2018-08-17T18:36:15.597Z,24.90
2018-08-17T18:38:46.273Z,24.80
2018-08-17T18:41:16.073Z,24.80
2018-08-17T18:43:46.782Z,24.70
2018-08-17T18:46:16.633Z,24.60
2018-08-17T18:48:46.331Z,24.60
2018-08-17T18:51:16.240Z,24.50
2018-08-17T18:53:46.304Z,24.50
2018-08-17T18:56:16.002Z,24.50
2018-08-17T18:58:45.670Z,24.50
2018-08-17T19:01:16.067Z,24.50
2018-08-17T19:03:45.671Z,24.50
2018-08-17T19:06:16.163Z,24.40
2018-08-17T19:08:45.799Z,24.30
2018-08-17T19:11:16.162Z,24.20
2018-08-17T19:13:45.912Z,24.20
2018-08-17T19:16:16.463Z,24.20
2018-08-17T19:18:46.125Z,24.20
2018-08-17T19:21:16.062Z,24.10
2018-08-17T19:23:45.825Z,24.10
2018-08-17T19:26:16.121Z,24.10
2018-08-17T19:28:51.672Z,24.00
2018-08-17T19:31:22.093Z,23.90
2018-08-17T19:33:51.885Z,23.80
2018-08-17T19:36:21.536Z,23.70
2018-08-17T19:38:51.683Z,23.60
2018-08-17T19:41:21.835Z,23.50
2018-08-17T19:43:51.546Z,23.40
2018-08-17T19:46:21.451Z,23.30
2018-08-17T19:48:51.056Z,23.20
2018-08-17T19:51:20.949Z,23.20
2018-08-17T19:53:53.556Z,23.00
2018-08-17T19:56:23.191Z,23.00
2018-08-17T19:58:53.742Z,22.90
2018-08-17T20:01:25.215Z,22.90
2018-08-17T20:03:57.023Z,22.80
2018-08-17T20:06:26.765Z,22.70
2018-08-17T20:08:57.041Z,22.60
2018-08-17T20:11:27.076Z,22.60
2018-08-17T20:13:58.320Z,22.50
2018-08-17T20:16:29.381Z,22.40
2018-08-17T20:19:01.080Z,22.40
2018-08-17T20:21:31.031Z,22.30
2018-08-17T20:24:00.641Z,22.20
2018-08-17T20:26:37.269Z,22.10
2018-08-17T20:29:06.719Z,22.10
2018-08-17T20:31:42.647Z,22.00
2018-08-17T20:34:12.307Z,22.00
2018-08-17T20:36:42.776Z,21.90
2018-08-17T20:39:14.468Z,21.80
2018-08-17T20:41:44.252Z,21.80
2018-08-17T20:44:13.878Z,21.80
2018-08-17T20:46:43.538Z,21.70
2018-08-17T20:49:13.152Z,21.70
2018-08-17T20:51:47.718Z,21.60
2018-08-17T20:54:17.993Z,21.50
2018-08-17T20:56:48.334Z,21.50
2018-08-17T20:59:19.706Z,21.50
2018-08-17T21:01:49.337Z,21.50
2018-08-17T21:04:19.630Z,21.50
2018-08-17T21:06:49.906Z,21.50
2018-08-17T21:09:20.179Z,21.40
2018-08-17T21:11:50.684Z,21.40
2018-08-17T21:14:21.475Z,21.40
2018-08-17T21:16:51.127Z,21.40
2018-08-17T21:19:30.128Z,21.30
2018-08-17T21:21:59.755Z,21.30
2018-08-17T21:24:29.317Z,21.30
2018-08-17T21:26:59.022Z,21.20
2018-08-17T21:29:28.980Z,21.10
2018-08-17T21:31:58.402Z,21.10
2018-08-17T21:34:28.036Z,21.10
2018-08-17T21:36:57.676Z,21.10
2018-08-17T21:39:27.304Z,21.10
2018-08-17T21:41:57.019Z,21.10
2018-08-17T21:44:26.589Z,21.10
2018-08-17T21:47:03.029Z,21.10
2018-08-17T21:49:33.272Z,21.10
2018-08-17T21:52:05.751Z,21.10
2018-08-17T21:54:35.643Z,21.00
2018-08-17T21:57:05.697Z,21.00
2018-08-17T21:59:40.404Z,21.00
2018-08-17T22:02:11.648Z,21.00
2018-08-17T22:04:41.262Z,21.00
2018-08-17T22:07:24.139Z,20.90
2018-08-17T22:09:54.539Z,20.90
2018-08-17T22:12:24.919Z,20.90
2018-08-17T22:14:54.543Z,20.90
2018-08-17T22:17:37.326Z,20.90
2018-08-17T22:20:10.731Z,20.90
2018-08-17T22:22:41.447Z,21.00
2018-08-17T22:25:17.269Z,20.90
2018-08-17T22:27:49.423Z,20.80
2018-08-17T22:30:22.217Z,20.80
2018-08-17T22:32:52.204Z,20.80
2018-08-17T22:35:23.157Z,20.70
2018-08-17T22:37:52.773Z,20.60
2018-08-17T22:40:22.505Z,20.40
2018-08-17T22:42:52.133Z,20.20
2018-08-17T22:45:21.746Z,20.10
2018-08-17T22:47:51.668Z,20.10
2018-08-17T22:50:21.287Z,20.00
2018-08-17T22:52:50.945Z,20.00
2018-08-17T22:55:20.587Z,20.00
2018-08-17T22:57:50.237Z,20.00
2018-08-17T23:00:31.142Z,20.10
2018-08-17T23:03:02.116Z,20.00
2018-08-17T23:05:35.331Z,20.00
2018-08-17T23:08:05.147Z,20.00
2018-08-17T23:10:34.874Z,19.90
2018-08-17T23:13:04.567Z,20.00
2018-08-17T23:15:34.282Z,20.00
2018-08-17T23:18:03.983Z,20.00
2018-08-17T23:20:36.916Z,20.00
2018-08-17T23:23:07.596Z,20.00
2018-08-17T23:25:37.256Z,20.00
2018-08-17T23:28:06.950Z,20.00
2018-08-17T23:30:36.558Z,20.00
2018-08-17T23:33:06.278Z,20.00
2018-08-17T23:35:35.871Z,20.00
2018-08-17T23:38:05.547Z,20.00
2018-08-17T23:40:35.210Z,20.00
2018-08-17T23:43:04.906Z,20.00
2018-08-17T23:45:34.573Z,20.00
2018-08-17T23:48:04.438Z,20.00
2018-08-17T23:50:34.095Z,20.10
2018-08-17T23:53:03.887Z,20.10
2018-08-17T23:55:33.575Z,20.10
2018-08-17T23:58:03.252Z,20.10
